Santa Paula, CA

2:29 AM PDT on September 16, 2014 (GMT -0700)
Santa Paula Airport | Change Station
CLOSE
Current Station
Personal Weather Station
Location: Santa Paula, CA
Elevation: 245 ft
Nearby Weather Stations
Active Advisory: Excessive Heat Warning Active Notice: Record Report

Elev 245 ft 34.35 °N, 119.06 °W | Updated 21 seconds ago

Clear
Clear
70.0 °F
Feels Like 70.0 °F
N
4.0
Wind Variable Wind from ENE
Gusts 6.0 mph

Today
High -- | Low -- °F
--% Chance of Precip.
Yesterday
High -- | Low -- °F
Precip. -- in
6:40 AM 7:01 PM
Waning Gibbous, 47% visible
Pressure 29.80 in
Visibility 10.0 miles
Clouds Clear
Dew Point 64 °F
Humidity 82%
Rainfall 0.00 in
Snow Depth 0 in , 0 in , 1 in
UV 0 out of 12
Pollen 7.70 out of 12
Ozone Good
PM2.5 Moderate
Flu Activity Not available.
METAR KCMA 160855Z 00000KT 10SM CLR 23/16 A2977 RMK AO2 SLP089 T02330161 56002

More Conditions Fewer Conditions

Pressure 29.80 in
Visibility 10.0 miles
Clouds Clear
Dew Point 64 °F
Humidity 82%
Rainfall 0.00 in
Snow Depth 0 in , 0 in , 1 in
UV 0 out of 12
Pollen 7.70 out of 12
Ozone Good
PM2.5 Moderate
Flu Activity Not available.
METAR KCMA 160855Z 00000KT 10SM CLR 23/16 A2977 RMK AO2 SLP089 T02330161 56002

More Conditions Fewer Conditions

10-Day Weather Forecast

Almanac

Astronomy

Sep. 16, 2014 Rise Set
Actual Time 6:40 AM PDT 7:01 PM PDT
Civil Twilight 6:15 AM PDT 7:26 PM PDT
Nautical Twilight 5:45 AM PDT 7:55 PM PDT
Astronomical Twilight 5:15 AM PDT 8:25 PM PDT
Moon 12:04 AM PDT 2:18 PM PDT
Length of Visible Light 13h 11m
Length of Day
12h 21m
Tomorrow will be 2m 8s shorter.
Waning Gibbous, 47% of the Moon is Illuminated
Today
Waning Gibbous
Sep 24
New
Oct 1
First Quarter
Oct 8
Full
Oct 15
Last Quarter

Today's Extremes

State Highs State Lows

Community

WunderPhotos

Upload Photos

1,753,714 photos uploaded!

WunderBlogs® & News

Nearby

Air Quality

  Air Quality AQ Index Pollutant
Yesterday Moderate
PM2.5
Yesterday Good
OZONE
Current Moderate
PM2.5
Current Good
OZONE
Tuesday Moderate
PM2.5
Tuesday Good
OZONE
Wednesday Moderate
PM2.5
Wednesday Good
OZONE
Thursday Moderate
PM2.5
Thursday Good
OZONE
Friday Moderate
PM2.5
Friday Good
OZONE
Saturday Moderate
PM2.5
Saturday Good
OZONE

Snow Depth

Station Depth Elevation
Leavitt Lake 0 in 9400 ft
Leavitt Meadows 0 in 7200 ft
Blue Lakes 0 in 8000 ft
Spratt Creek 1 in 6200 ft
Echo Peak 0 in 7800 ft

Earthquake Activity

City Distance Mag. Time & Date
Inyokern, California 123 miles 3.2 5:56 PM PDT
2014-09-14
Minimum magnitude displayed is 2.5.

Coastal Water Temperatures

Place Temperature
Santa Monica Pier 70.0 °F
Los Angeles, CA 69.1 °F
Port San Luis, CA 62.1 °F

Nearby Weather Stations